M I D A S
Marine Information and Data Acquisition System
Tripno 1370 of the Zeeleeuw from 2007-12-18 07:33:26 to 2007-12-18 16:04:42
Back to CruiseResearch ActivitiesStationsMapUnderway DataData graphs

EquipmentUnitsComment
TimeDGPSUTC
LatitudeDGPSDM.mWGS84
LongitudeDGPSDM.mWGS84
HeadingGyrodeg 
SOGDGPSknotsSpeed over ground
COGDGPSdegCourse over ground
DepthEcho soundermeters200 kHz
Missing or incorrect values are displayed as -999
Navigation data collected by the RV Zeeleeuw from 2007-12-18 07:35:43 to 2007-12-18 16:13:49
                                                                                    Next 1000 lines
Time Latitude Longitude Heading SOG COG Depth
2007-12-18 07:35:53 51°13.597 2°56.093 109.9 0.6 283 -999
2007-12-18 07:35:58 51°13.598 2°56.091 109.6 0.9 283 -999
2007-12-18 07:36:03 51°13.598 2°56.088 109.5 1.2 289 9.4
2007-12-18 07:36:07 51°13.599 2°56.086 109.7 1.5 287 9.4
2007-12-18 07:36:12 51°13.599 2°56.082 110.2 1.8 290 9.5
2007-12-18 07:36:17 51°13.6 2°56.078 111 2.1 290 -999
2007-12-18 07:36:23 51°13.602 2°56.073 112.1 2.3 293 -999
2007-12-18 07:36:28 51°13.603 2°56.067 112.7 2.5 292 -999
2007-12-18 07:36:33 51°13.605 2°56.062 112.9 2.7 293 -999
2007-12-18 07:36:38 51°13.606 2°56.056 113.1 3 292 -999
2007-12-18 07:36:43 51°13.608 2°56.049 113.3 3.4 293 -999
2007-12-18 07:36:48 51°13.61 2°56.041 113.7 3.7 293 -999
2007-12-18 07:36:53 51°13.612 2°56.033 114.3 4 293 -999
2007-12-18 07:36:58 51°13.615 2°56.025 115 4.2 293 -999
2007-12-18 07:37:03 51°13.617 2°56.016 115.6 4.4 294 -999
2007-12-18 07:37:08 51°13.62 2°56.007 116.1 4.5 294 -999
2007-12-18 07:37:13 51°13.622 2°55.997 116.3 4.6 295 -999
2007-12-18 07:37:18 51°13.625 2°55.988 116.8 4.8 295 -999
2007-12-18 07:37:23 51°13.628 2°55.978 117.2 4.9 296 -999
2007-12-18 07:37:28 51°13.631 2°55.968 117.5 5 296 -999
2007-12-18 07:37:33 51°13.634 2°55.958 117.7 5.1 296 -999
2007-12-18 07:37:38 51°13.637 2°55.948 117.8 5.2 297 -999
2007-12-18 07:37:43 51°13.64 2°55.938 117.9 5.2 297 -999
2007-12-18 07:37:48 51°13.644 2°55.927 118.1 5.3 297 -999
2007-12-18 07:37:53 51°13.647 2°55.917 118.2 5.3 297 -999
2007-12-18 07:37:58 51°13.65 2°55.906 118.3 5.4 297 -999
2007-12-18 07:38:03 51°13.654 2°55.896 118.1 5.3 297 -999
2007-12-18 07:38:08 51°13.657 2°55.886 117.5 5.2 297 -999
2007-12-18 07:38:13 51°13.66 2°55.876 116.7 4.9 296 -999
2007-12-18 07:38:18 51°13.663 2°55.866 115.9 4.7 296 -999
2007-12-18 07:38:23 51°13.665 2°55.857 115.2 4.6 295 -999
2007-12-18 07:38:28 51°13.668 2°55.848 114.6 4.5 295 -999
2007-12-18 07:38:33 51°13.67 2°55.839 113.8 4.4 294 -999
2007-12-18 07:38:38 51°13.673 2°55.831 112.8 4.3 293 -999
2007-12-18 07:38:43 51°13.675 2°55.822 111.2 4.2 292 -999
2007-12-18 07:38:48 51°13.677 2°55.814 109.1 4 290 -999
2007-12-18 07:38:53 51°13.678 2°55.806 106.6 3.8 287 -999
2007-12-18 07:38:58 51°13.679 2°55.798 103.7 3.7 285 -999
2007-12-18 07:39:03 51°13.68 2°55.79 101.1 3.5 282 -999
2007-12-18 07:39:08 51°13.681 2°55.783 99.1 3.3 280 -999
2007-12-18 07:39:13 51°13.682 2°55.776 97.8 3.2 279 -999
2007-12-18 07:39:18 51°13.683 2°55.769 96.6 3.1 278 11.8
2007-12-18 07:39:23 51°13.683 2°55.763 95.8 2.9 277 12.6
2007-12-18 07:39:27 51°13.683 2°55.758 95.5 2.8 278 12.8
2007-12-18 07:39:32 51°13.684 2°55.752 95.2 2.5 278 12.9
2007-12-18 07:39:37 51°13.684 2°55.748 95 2.1 278 12.7
2007-12-18 07:39:42 51°13.685 2°55.745 94.3 1.4 281 12.6
2007-12-18 07:39:47 51°13.685 2°55.743 92.6 1 285 12.9
2007-12-18 07:39:52 51°13.685 2°55.741 89.7 0.7 298 13.2
2007-12-18 07:39:56 51°13.686 2°55.741 86.5 0.4 324 13.5
2007-12-18 07:40:01 51°13.686 2°55.74 82.8 0.4 352 13.9
2007-12-18 07:40:07 51°13.687 2°55.74 78.7 0.4 1 13.9
2007-12-18 07:40:11 51°13.687 2°55.741 74.7 0.5 18 13.8
2007-12-18 07:40:16 51°13.688 2°55.741 71.4 0.6 33 13.9
2007-12-18 07:40:21 51°13.689 2°55.742 68.1 0.8 36 14
2007-12-18 07:40:26 51°13.69 2°55.744 64.5 1.2 43 14
2007-12-18 07:40:31 51°13.692 2°55.747 60.9 1.6 43 14.2
2007-12-18 07:40:35 51°13.693 2°55.749 55.7 1.8 44 14.4
2007-12-18 07:40:40 51°13.695 2°55.751 49.7 1.8 39 14.8
2007-12-18 07:40:45 51°13.697 2°55.754 44.3 1.7 35 15
2007-12-18 07:40:50 51°13.699 2°55.756 41.1 1.5 36 15.3
2007-12-18 07:40:55 51°13.7 2°55.757 39 1.2 35 15.5
2007-12-18 07:40:59 51°13.701 2°55.758 36.8 0.7 35 15.4
2007-12-18 07:41:04 51°13.701 2°55.758 34.7 0.1 25 -999
2007-12-18 07:41:10 51°13.701 2°55.758 33.1 0.5 207 15.4
2007-12-18 07:41:15 51°13.7 2°55.757 32.2 0.9 213 15.4
2007-12-18 07:41:20 51°13.698 2°55.755 31.8 1.3 208 15.5
2007-12-18 07:41:25 51°13.696 2°55.754 31.5 1.5 212 -999
2007-12-18 07:41:30 51°13.695 2°55.752 31.5 1.4 210 -999
2007-12-18 07:41:36 51°13.693 2°55.75 31.9 1.4 213 -999
2007-12-18 07:41:42 51°13.691 2°55.748 32.1 1.2 216 -999
2007-12-18 07:41:47 51°13.69 2°55.747 32.5 0.7 218 -999
2007-12-18 07:41:53 51°13.69 2°55.747 32.1 0.2 253 -999
2007-12-18 07:41:58 51°13.691 2°55.747 29.3 0.5 6 -999
2007-12-18 07:42:03 51°13.692 2°55.747 24.6 1.1 10 -999
2007-12-18 07:42:07 51°13.694 2°55.748 20.3 1.7 7 14.4
2007-12-18 07:42:13 51°13.698 2°55.748 13.7 2.3 3 -999
2007-12-18 07:42:18 51°13.702 2°55.747 6.1 2.9 355 -999
2007-12-18 07:42:23 51°13.707 2°55.746 356.7 3.4 349 -999
2007-12-18 07:42:28 51°13.712 2°55.743 349.9 3.9 342 -999
2007-12-18 07:42:32 51°13.716 2°55.74 342.5 4.3 337 4.7
2007-12-18 07:42:38 51°13.723 2°55.735 338.7 4.5 336 14.5
2007-12-18 07:42:42 51°13.728 2°55.731 336.8 4.7 334 14.4
2007-12-18 07:42:47 51°13.734 2°55.726 334.8 4.9 333 14.1
2007-12-18 07:42:52 51°13.74 2°55.721 333.7 5 332 13.2
2007-12-18 07:42:57 51°13.746 2°55.716 333.1 5.2 332 12.5
2007-12-18 07:43:02 51°13.753 2°55.71 332.8 5.4 331 12.1
2007-12-18 07:43:07 51°13.76 2°55.704 332.7 5.5 331 12.1
2007-12-18 07:43:11 51°13.765 2°55.699 332.7 5.6 329 11.7
2007-12-18 07:43:16 51°13.772 2°55.692 331.8 5.7 329 11.7
2007-12-18 07:43:21 51°13.778 2°55.686 330.8 5.8 328 11.7
2007-12-18 07:43:26 51°13.785 2°55.679 329.8 5.9 328 11.6
2007-12-18 07:43:31 51°13.792 2°55.672 329.5 6 328 11.9
2007-12-18 07:43:36 51°13.799 2°55.665 330.2 6 329 11.9
2007-12-18 07:43:40 51°13.805 2°55.66 331.5 6.1 331 11.9
2007-12-18 07:43:45 51°13.813 2°55.653 333.1 6.2 332 11.9
2007-12-18 07:43:50 51°13.82 2°55.647 335 6.3 333 11.9
2007-12-18 07:43:55 51°13.828 2°55.641 336 6.3 333 12.1
2007-12-18 07:44:00 51°13.836 2°55.635 336.5 6.3 334 12.3
2007-12-18 07:44:05 51°13.844 2°55.629 336.6 6.4 334 12.2
2007-12-18 07:44:10 51°13.852 2°55.623 336.6 6.4 334 12.2
2007-12-18 07:44:15 51°13.86 2°55.617 336.7 6.5 336 12.2
2007-12-18 07:44:19 51°13.867 2°55.613 338.2 6.5 337 12.3
2007-12-18 07:44:24 51°13.875 2°55.607 339.9 6.5 338 12.2
2007-12-18 07:44:29 51°13.884 2°55.602 340.8 6.5 338 12.1
2007-12-18 07:44:34 51°13.892 2°55.596 341.1 6.6 339 12.1
2007-12-18 07:44:39 51°13.901 2°55.591 341.2 6.6 339 12.2
2007-12-18 07:44:44 51°13.909 2°55.585 341.2 6.6 339 12.3
2007-12-18 07:44:49 51°13.918 2°55.58 341.1 6.6 338 12.3
2007-12-18 07:44:54 51°13.926 2°55.574 340.7 6.7 338 12.2
2007-12-18 07:44:59 51°13.935 2°55.568 340.3 6.7 337 12.2
2007-12-18 07:45:04 51°13.943 2°55.563 339.8 6.8 337 12.2
2007-12-18 07:45:09 51°13.952 2°55.556 339.3 6.9 336 12.1
2007-12-18 07:45:14 51°13.961 2°55.55 338.8 7.1 336 12.2
2007-12-18 07:45:19 51°13.97 2°55.543 338.2 7.2 335 12.2
2007-12-18 07:45:24 51°13.98 2°55.536 337.5 7.3 334 12.2
2007-12-18 07:45:29 51°13.989 2°55.529 337.4 7.4 335 12.1
2007-12-18 07:45:34 51°13.998 2°55.522 337.4 7.5 335 12.2
2007-12-18 07:45:39 51°14.008 2°55.515 337.5 7.6 335 12.1
2007-12-18 07:45:44 51°14.017 2°55.508 338 7.6 335 12
2007-12-18 07:45:49 51°14.027 2°55.501 338.6 7.7 336 12
2007-12-18 07:45:55 51°14.039 2°55.493 339.1 7.8 337 12
2007-12-18 07:46:00 51°14.049 2°55.486 340.1 7.8 337 -999
2007-12-18 07:46:05 51°14.059 2°55.479 340.4 7.8 337 12
2007-12-18 07:46:10 51°14.069 2°55.472 339.6 7.9 335 -999
2007-12-18 07:46:16 51°14.081 2°55.463 338.5 7.9 335 -999
2007-12-18 07:46:22 51°14.093 2°55.454 337.8 8 334 12.1
2007-12-18 07:46:27 51°14.103 2°55.446 337.3 8 335 -999
2007-12-18 07:46:32 51°14.113 2°55.439 337.3 8 335 -999
2007-12-18 07:46:38 51°14.125 2°55.43 337.7 8 335 12.2
2007-12-18 07:46:43 51°14.135 2°55.422 337.6 8 334 -999
2007-12-18 07:46:47 51°14.143 2°55.416 336.8 8.1 333 12.1
2007-12-18 07:46:53 51°14.155 2°55.405 336.2 8.2 332 -999
2007-12-18 07:46:58 51°14.165 2°55.396 335.5 8.3 331 -999
2007-12-18 07:47:03 51°14.175 2°55.386 332.7 8.4 328 -999
2007-12-18 07:47:08 51°14.185 2°55.376 330.6 8.5 327 -999
2007-12-18 07:47:13 51°14.195 2°55.365 329.4 8.7 325 -999
2007-12-18 07:47:18 51°14.205 2°55.353 327.5 8.9 323 -999
2007-12-18 07:47:23 51°14.215 2°55.34 324.6 9.2 320 -999
2007-12-18 07:47:28 51°14.225 2°55.327 323.2 9.4 320 -999
2007-12-18 07:47:33 51°14.235 2°55.313 323.1 9.6 320 -999
2007-12-18 07:47:38 51°14.245 2°55.299 322.5 9.8 318 -999
2007-12-18 07:47:43 51°14.254 2°55.283 320 10.1 315 -999
2007-12-18 07:47:47 51°14.262 2°55.269 317.1 10.3 312 12.1
2007-12-18 07:47:52 51°14.272 2°55.252 315.4 10.6 311 12.3
2007-12-18 07:47:57 51°14.281 2°55.233 314.3 10.7 309 12.6
2007-12-18 07:48:02 51°14.29 2°55.215 312.8 10.9 308 12.3
2007-12-18 07:48:07 51°14.299 2°55.195 311.5 11 306 12.4
2007-12-18 07:48:12 51°14.308 2°55.175 309.5 11.2 305 12.1
2007-12-18 07:48:17 51°14.317 2°55.154 308.3 11.3 304 12.1
2007-12-18 07:48:22 51°14.325 2°55.133 307.4 11.4 303 12.2
2007-12-18 07:48:27 51°14.334 2°55.111 306.7 11.6 302 12.2
2007-12-18 07:48:31 51°14.34 2°55.093 305.6 11.6 301 12.1
2007-12-18 07:48:36 51°14.348 2°55.07 303.9 11.7 299 12.2
2007-12-18 07:48:41 51°14.356 2°55.047 301.9 11.8 298 11.8
2007-12-18 07:48:46 51°14.363 2°55.024 300.6 11.9 296 11.6
2007-12-18 07:48:51 51°14.371 2°55 298.8 11.9 298 11.3
2007-12-18 07:48:55 51°14.377 2°54.981 298.8 12 298 11.5
2007-12-18 07:49:00 51°14.385 2°54.959 300.4 11.9 302 11.6
2007-12-18 07:49:05 51°14.395 2°54.937 304 12 305 11.8
2007-12-18 07:49:10 51°14.405 2°54.916 307 12.1 307 12
2007-12-18 07:49:15 51°14.416 2°54.895 309.2 12.1 309 12.2
2007-12-18 07:49:19 51°14.425 2°54.88 312.5 12.1 315 12.4
2007-12-18 07:49:24 51°14.438 2°54.861 315.8 12.1 317 12.2
2007-12-18 07:49:29 51°14.451 2°54.844 318.6 12.2 322 12.4
2007-12-18 07:49:34 51°14.465 2°54.829 322.9 12.2 328 12.6
2007-12-18 07:49:39 51°14.48 2°54.816 327.3 12.2 330 12
2007-12-18 07:49:44 51°14.494 2°54.803 329.8 12.3 332 12.3
2007-12-18 07:49:49 51°14.51 2°54.792 332.4 12.4 334 11.9
2007-12-18 07:49:54 51°14.526 2°54.781 333.8 12.3 336 11.4
2007-12-18 07:49:59 51°14.541 2°54.771 335.7 12.4 339 11.4
2007-12-18 07:50:04 51°14.558 2°54.762 338.5 12.6 343 11.5
2007-12-18 07:50:09 51°14.575 2°54.755 341.4 12.5 344 11.2
2007-12-18 07:50:14 51°14.592 2°54.749 344.5 12.7 348 11.3
2007-12-18 07:50:19 51°14.609 2°54.744 348.2 12.7 350 11.3
2007-12-18 07:50:24 51°14.627 2°54.74 350 12.7 352 11.2
2007-12-18 07:50:29 51°14.645 2°54.737 352.2 12.9 354 11.3
2007-12-18 07:50:34 51°14.662 2°54.735 354 12.9 355 11.1
2007-12-18 07:50:39 51°14.68 2°54.733 355.4 12.9 356 11.2
2007-12-18 07:50:44 51°14.698 2°54.731 356.1 13 357 11.2
2007-12-18 07:50:49 51°14.716 2°54.73 357 13 358 11
2007-12-18 07:50:54 51°14.734 2°54.729 357.5 13 358 11.1
2007-12-18 07:50:59 51°14.752 2°54.728 358.2 13 358 11
2007-12-18 07:51:04 51°14.77 2°54.727 358.3 13 358 11
2007-12-18 07:51:09 51°14.788 2°54.726 358.1 13.1 358 11.2
2007-12-18 07:51:14 51°14.806 2°54.726 358.1 13 358 11.1
2007-12-18 07:51:19 51°14.824 2°54.725 357.8 13 358 11
2007-12-18 07:51:24 51°14.842 2°54.724 357.6 13 358 11
2007-12-18 07:51:28 51°14.857 2°54.723 357.3 13 358 10.9
2007-12-18 07:51:34 51°14.878 2°54.722 357.4 13 358 10.8
2007-12-18 07:51:39 51°14.896 2°54.72 356.7 12.9 357 10.6
2007-12-18 07:51:44 51°14.914 2°54.718 356.3 12.9 357 10.7
2007-12-18 07:51:49 51°14.932 2°54.716 356 12.9 356 10.6
2007-12-18 07:51:54 51°14.95 2°54.714 355.6 13 356 10.5
2007-12-18 07:51:59 51°14.968 2°54.712 355.4 13 356 10.5
2007-12-18 07:52:04 51°14.986 2°54.71 355.6 12.9 356 10.4
2007-12-18 07:52:09 51°15.003 2°54.708 355.8 12.9 356 10.3
2007-12-18 07:52:14 51°15.021 2°54.706 356 13 356 10.1
2007-12-18 07:52:19 51°15.039 2°54.704 356.2 13 356 10.2
2007-12-18 07:52:24 51°15.057 2°54.702 356.2 12.9 356 10.2
2007-12-18 07:52:29 51°15.075 2°54.7 356.2 13 356 10
2007-12-18 07:52:34 51°15.093 2°54.698 355.9 13 356 9.9
2007-12-18 07:52:39 51°15.111 2°54.696 355.8 13 356 9.7
2007-12-18 07:52:44 51°15.129 2°54.693 356 12.9 355 9.6
2007-12-18 07:52:49 51°15.147 2°54.691 356 12.9 355 9.8
2007-12-18 07:52:54 51°15.165 2°54.688 355.3 12.9 354 9.8
2007-12-18 07:52:59 51°15.183 2°54.685 355 13 354 9.8
2007-12-18 07:53:04 51°15.201 2°54.681 354.7 13 353 10
2007-12-18 07:53:09 51°15.219 2°54.678 354.5 13 353 10
2007-12-18 07:53:14 51°15.236 2°54.675 354.3 13 353 10.1
2007-12-18 07:53:20 51°15.258 2°54.671 354.7 12.9 353 10
2007-12-18 07:53:25 51°15.276 2°54.667 354.8 12.9 353 10.2
2007-12-18 07:53:29 51°15.29 2°54.665 355.1 13 354 10.1
2007-12-18 07:53:35 51°15.311 2°54.661 355.8 13 354 10.2
2007-12-18 07:53:39 51°15.326 2°54.659 355.9 13 354 10.2
2007-12-18 07:53:44 51°15.343 2°54.655 356 12.8 354 10.3
2007-12-18 07:53:49 51°15.361 2°54.652 356 12.8 354 10.3
2007-12-18 07:53:55 51°15.382 2°54.649 355.8 12.9 354 10.3
2007-12-18 07:53:59 51°15.396 2°54.646 355.6 12.9 353 10.5
2007-12-18 07:54:04 51°15.414 2°54.643 355.2 13 354 10.6
2007-12-18 07:54:09 51°15.432 2°54.639 355.2 12.9 354 10.5
2007-12-18 07:54:14 51°15.45 2°54.636 355.3 12.9 354 10.8
2007-12-18 07:54:19 51°15.468 2°54.633 355.4 12.8 353 10.6
2007-12-18 07:54:24 51°15.485 2°54.63 355.1 13 354 10.9
2007-12-18 07:54:29 51°15.503 2°54.627 355.4 12.9 353 10.9
2007-12-18 07:54:34 51°15.521 2°54.623 355.1 12.8 353 10.8
2007-12-18 07:54:39 51°15.538 2°54.62 354.5 12.8 353 10.9
2007-12-18 07:54:44 51°15.556 2°54.616 353.9 13 353 11
2007-12-18 07:54:49 51°15.574 2°54.613 354.3 12.9 354 10.8
2007-12-18 07:54:54 51°15.592 2°54.612 356.3 13 357 11.2
2007-12-18 07:54:59 51°15.61 2°54.61 357.8 12.9 358 11.2
2007-12-18 07:55:04 51°15.628 2°54.609 358.7 13 358 11.2
2007-12-18 07:55:09 51°15.646 2°54.608 359.2 13 358 11.2
2007-12-18 07:55:14 51°15.664 2°54.608 359.7 13 359 11.3
2007-12-18 07:55:19 51°15.682 2°54.608 0.5 13.1 359 11.4
2007-12-18 07:55:24 51°15.7 2°54.607 0.7 13.1 -999 11.4
2007-12-18 07:55:29 51°15.718 2°54.608 1.1 13.1 -999 11.5
2007-12-18 07:55:35 51°15.74 2°54.608 1.6 13.1 -999 11.5
2007-12-18 07:55:39 51°15.755 2°54.608 1.4 13.1 1 11.4
2007-12-18 07:55:44 51°15.773 2°54.608 1.4 13.1 -999 11.6
2007-12-18 07:55:49 51°15.791 2°54.609 1.5 13.1 1 11.7
2007-12-18 07:55:54 51°15.809 2°54.609 2.1 13.1 2 11.7
2007-12-18 07:55:59 51°15.827 2°54.61 2.4 13.1 2 11.9
2007-12-18 07:56:04 51°15.846 2°54.611 2.8 13 2 11.7
2007-12-18 07:56:09 51°15.863 2°54.612 2.9 12.9 2 11.6
2007-12-18 07:56:14 51°15.881 2°54.613 3.1 13 2 12
2007-12-18 07:56:19 51°15.899 2°54.614 3.3 13 3 12
2007-12-18 07:56:24 51°15.917 2°54.615 3.4 13 2 11.9
2007-12-18 07:56:29 51°15.935 2°54.616 2.8 13.1 1 12.2
2007-12-18 07:56:34 51°15.953 2°54.616 2.2 13 -999 12.2
2007-12-18 07:56:39 51°15.971 2°54.616 1.5 13.1 -999 12.2
2007-12-18 07:56:44 51°15.99 2°54.616 0.9 13 359 12
2007-12-18 07:56:49 51°16.008 2°54.615 0.1 12.9 358 12.2
2007-12-18 07:56:54 51°16.024 2°54.614 359 12 357 12.2
2007-12-18 07:56:59 51°16.04 2°54.612 358 11.3 356 12.1
2007-12-18 07:57:04 51°16.055 2°54.61 356.9 10.6 356 12.4
2007-12-18 07:57:09 51°16.068 2°54.608 355.9 9.6 353 12.4
2007-12-18 07:57:14 51°16.08 2°54.605 353.2 8.9 350 12.5
2007-12-18 07:57:19 51°16.092 2°54.601 348.8 8.2 345 12.6
2007-12-18 07:57:24 51°16.102 2°54.595 343 7.7 340 12.5
2007-12-18 07:57:29 51°16.11 2°54.589 336.9 7.2 336 12.5
2007-12-18 07:57:34 51°16.119 2°54.582 331.2 6.6 331 12.5
2007-12-18 07:57:39 51°16.126 2°54.574 325.4 6.1 326 12.6
2007-12-18 07:57:44 51°16.132 2°54.566 319.9 5.8 321 12.5
2007-12-18 07:57:49 51°16.137 2°54.558 314.2 5.4 318 12.6
2007-12-18 07:57:54 51°16.142 2°54.549 309.5 5.2 312 12.7
2007-12-18 07:58:00 51°16.147 2°54.539 303.8 4.8 307 12.7
2007-12-18 07:58:04 51°16.149 2°54.532 298.6 4.7 304 12.6
2007-12-18 07:58:09 51°16.153 2°54.524 293.9 4.5 300 12.6
2007-12-18 07:58:14 51°16.155 2°54.515 290.1 4.4 298 12.6
2007-12-18 07:58:19 51°16.158 2°54.506 287.4 4.3 295 12.6
2007-12-18 07:58:24 51°16.16 2°54.498 285.9 4.4 296 12.7
2007-12-18 07:58:29 51°16.163 2°54.489 286 4.4 294 12.8
2007-12-18 07:58:34 51°16.166 2°54.48 288.1 4.3 298 12.8
2007-12-18 07:58:39 51°16.169 2°54.472 290.9 4.3 301 12.7
2007-12-18 07:58:44 51°16.172 2°54.465 295 4.3 306 12.7
2007-12-18 07:58:49 51°16.176 2°54.457 299 4.2 309 12.5
2007-12-18 07:58:54 51°16.179 2°54.45 301.1 4.3 309 12.7
2007-12-18 07:58:59 51°16.183 2°54.442 302.6 4.2 309 12.6
2007-12-18 07:59:04 51°16.187 2°54.435 303 4.2 308 12.6
2007-12-18 07:59:09 51°16.191 2°54.428 302.7 4.2 310 12.7
2007-12-18 07:59:14 51°16.194 2°54.42 302.1 4.2 308 12.7
2007-12-18 07:59:19 51°16.198 2°54.413 300.8 4.2 307 12.7
2007-12-18 07:59:24 51°16.201 2°54.405 298.9 4.1 304 12.7
2007-12-18 07:59:29 51°16.204 2°54.397 296.8 4.2 303 12.7
2007-12-18 07:59:34 51°16.207 2°54.389 294.4 4.1 300 12.7
2007-12-18 07:59:39 51°16.21 2°54.381 291.2 4.1 299 12.7
2007-12-18 07:59:44 51°16.212 2°54.373 288.9 4.1 297 12.6
2007-12-18 07:59:49 51°16.215 2°54.365 287 4.1 294 12.6
2007-12-18 07:59:54 51°16.217 2°54.357 286.5 4.1 296 12.6
2007-12-18 07:59:59 51°16.22 2°54.348 286.9 4.1 295 12.8
2007-12-18 08:00:04 51°16.222 2°54.341 288.2 4 297 12.9
2007-12-18 08:00:09 51°16.225 2°54.333 289.8 3.8 299 12.7
2007-12-18 08:00:14 51°16.227 2°54.326 291 3.6 301 12.6
2007-12-18 08:00:19 51°16.23 2°54.32 292.4 3.4 302 12.7
2007-12-18 08:00:24 51°16.233 2°54.314 293.9 3.3 307 12.6
2007-12-18 08:00:29 51°16.235 2°54.309 295.4 3 308 12.7
2007-12-18 08:00:34 51°16.237 2°54.305 297.1 2.4 313 12.7
2007-12-18 08:00:39 51°16.239 2°54.302 298.1 2 319 12.7
2007-12-18 08:00:44 51°16.241 2°54.299 298.3 1.6 324 12.8
2007-12-18 08:00:49 51°16.242 2°54.298 298.6 1.2 324 12.9
2007-12-18 08:00:54 51°16.244 2°54.297 299.7 1 346 12.8
2007-12-18 08:00:59 51°16.245 2°54.297 301.2 1 7 12.7
2007-12-18 08:01:04 51°16.246 2°54.297 302.3 0.8 353 12.7
2007-12-18 08:01:09 51°16.247 2°54.297 304.1 0.8 355 12.7
2007-12-18 08:01:14 51°16.248 2°54.297 306.2 0.8 1 12.8
2007-12-18 08:01:19 51°16.249 2°54.297 308.4 0.8 -999 12.7
2007-12-18 08:01:24 51°16.25 2°54.297 310.3 0.7 359 12.8
2007-12-18 08:01:29 51°16.251 2°54.297 312.2 0.7 3 12.7
2007-12-18 08:01:34 51°16.252 2°54.297 313.8 0.7 6 12.7
2007-12-18 08:01:39 51°16.253 2°54.297 315.2 0.7 356 12.7
2007-12-18 08:01:44 51°16.254 2°54.297 316.6 0.7 358 12.7
2007-12-18 08:01:49 51°16.255 2°54.297 318.5 0.7 -999 12.8
2007-12-18 08:01:54 51°16.256 2°54.297 320.2 0.7 4 12.7
2007-12-18 08:01:59 51°16.257 2°54.297 321.5 0.7 2 12.7
2007-12-18 08:02:04 51°16.258 2°54.297 322.9 0.7 3 12.7
2007-12-18 08:02:09 51°16.259 2°54.297 324.2 0.7 1 12.8
2007-12-18 08:02:14 51°16.26 2°54.297 325.2 0.6 351 12.9
2007-12-18 08:02:19 51°16.261 2°54.298 326.9 0.6 5 12.7
2007-12-18 08:02:24 51°16.262 2°54.298 328 0.6 4 12.7
2007-12-18 08:02:29 51°16.263 2°54.298 328.8 0.7 5 12.7
2007-12-18 08:02:34 51°16.263 2°54.298 329.7 0.6 359 12.7
2007-12-18 08:02:39 51°16.264 2°54.299 330.8 0.6 10 12.6
2007-12-18 08:02:44 51°16.265 2°54.299 331.7 0.6 2 12.6
2007-12-18 08:02:49 51°16.266 2°54.299 332.4 0.6 12 12.7
2007-12-18 08:02:54 51°16.266 2°54.299 333.1 0.5 4 12.7
2007-12-18 08:02:59 51°16.267 2°54.299 333.4 0.5 3 12.8
2007-12-18 08:03:04 51°16.268 2°54.299 333.9 0.5 356 12.8
2007-12-18 08:03:09 51°16.268 2°54.299 334.5 0.4 -999 12.7
2007-12-18 08:03:14 51°16.269 2°54.299 334.5 0.4 10 12.5
2007-12-18 08:03:19 51°16.269 2°54.3 333.8 0.4 7 12.5
2007-12-18 08:03:24 51°16.27 2°54.3 333.6 0.4 25 12.6
2007-12-18 08:03:29 51°16.271 2°54.3 333.1 0.4 5 12.7
2007-12-18 08:03:34 51°16.271 2°54.3 333 0.4 13 12.7
2007-12-18 08:03:39 51°16.272 2°54.3 332.9 0.4 11 12.8
2007-12-18 08:03:44 51°16.272 2°54.3 332.9 0.4 12 12.7
2007-12-18 08:03:49 51°16.273 2°54.3 332.8 0.4 10 12.8
2007-12-18 08:03:54 51°16.273 2°54.3 332.6 0.5 8 12.8
2007-12-18 08:03:59 51°16.274 2°54.301 332.6 0.4 13 12.7
2007-12-18 08:04:04 51°16.274 2°54.301 332.7 0.4 24 12.7
2007-12-18 08:04:09 51°16.275 2°54.301 332.6 0.4 16 12.6
2007-12-18 08:04:14 51°16.275 2°54.301 332.3 0.4 357 12.8
2007-12-18 08:04:19 51°16.276 2°54.302 332.4 0.3 10 12.7
2007-12-18 08:04:24 51°16.276 2°54.302 331.5 0.3 14 12.6
2007-12-18 08:04:29 51°16.277 2°54.302 330.8 0.4 25 12.5
2007-12-18 08:04:34 51°16.277 2°54.302 330.2 0.4 2 12.7
2007-12-18 08:04:39 51°16.278 2°54.302 329.8 0.3 4 12.7
2007-12-18 08:04:44 51°16.278 2°54.302 329.6 0.4 30 12.6
2007-12-18 08:04:49 51°16.278 2°54.302 329.5 0.4 20 12.6
2007-12-18 08:04:54 51°16.279 2°54.302 329.1 0.3 2 12.8
2007-12-18 08:05:00 51°16.28 2°54.303 329.3 0.4 10 12.8
2007-12-18 08:05:04 51°16.28 2°54.303 329.3 0.4 22 12.6
2007-12-18 08:05:09 51°16.28 2°54.303 328.6 0.3 15 12.7
2007-12-18 08:05:14 51°16.281 2°54.303 328 0.3 358 12.7
2007-12-18 08:05:19 51°16.281 2°54.303 328.1 0.3 8 12.8
2007-12-18 08:05:24 51°16.282 2°54.304 327.4 0.4 18 12.7
2007-12-18 08:05:29 51°16.282 2°54.304 327.1 0.4 -999 12.8
2007-12-18 08:05:34 51°16.283 2°54.304 326.3 0.5 343 12.7
2007-12-18 08:05:39 51°16.284 2°54.303 326.4 0.8 356 12.7
2007-12-18 08:05:44 51°16.285 2°54.303 326.5 0.9 343 12.6
2007-12-18 08:05:49 51°16.286 2°54.302 325.9 1.1 338 12.7
2007-12-18 08:05:54 51°16.288 2°54.301 326.4 1.7 334 12.7
2007-12-18 08:05:59 51°16.291 2°54.298 327.1 2.8 332 12.6
2007-12-18 08:06:04 51°16.296 2°54.295 327.5 3.6 331 12.6
2007-12-18 08:06:09 51°16.301 2°54.29 328 4.6 330 12.6
2007-12-18 08:06:14 51°16.308 2°54.283 327.9 5.7 329 12.6
2007-12-18 08:06:19 51°16.315 2°54.275 326.7 6.6 326 12.6
2007-12-18 08:06:24 51°16.324 2°54.267 324.8 7.2 326 12.6
2007-12-18 08:06:29 51°16.332 2°54.256 323.3 7.8 323 12.7
2007-12-18 08:06:34 51°16.341 2°54.245 321.9 8.6 322 12.8
2007-12-18 08:06:39 51°16.351 2°54.232 320.6 9.1 320 12.8
2007-12-18 08:06:44 51°16.361 2°54.218 319.1 9.5 320 12.6
2007-12-18 08:06:49 51°16.371 2°54.204 317.7 9.8 317 12.5
2007-12-18 08:06:54 51°16.381 2°54.188 316.1 10.2 316 12.6
2007-12-18 08:07:00 51°16.394 2°54.167 314.8 10.7 313 12.7
2007-12-18 08:07:04 51°16.402 2°54.153 313.6 11 313 12.7
2007-12-18 08:07:09 51°16.412 2°54.134 312.8 11.2 311 12.7
2007-12-18 08:07:14 51°16.423 2°54.115 311.7 11.5 311 12.7
2007-12-18 08:07:19 51°16.433 2°54.095 310.6 11.7 310 12.6
2007-12-18 08:07:24 51°16.443 2°54.075 309.5 12 309 12.7
2007-12-18 08:07:29 51°16.454 2°54.054 309.1 12.1 309 12.8
2007-12-18 08:07:34 51°16.464 2°54.032 308.6 12.2 307 12.5
2007-12-18 08:07:39 51°16.474 2°54.011 307.7 12.3 308 12.5
2007-12-18 08:07:44 51°16.485 2°53.989 307.5 12.4 307 12.6
2007-12-18 08:07:49 51°16.495 2°53.967 307.7 12.4 308 12.6
2007-12-18 08:07:54 51°16.507 2°53.946 308.9 12.5 310 12.7
2007-12-18 08:07:59 51°16.518 2°53.925 310.2 12.5 309 12.5
2007-12-18 08:08:04 51°16.529 2°53.904 310.3 12.5 310 12.7
2007-12-18 08:08:09 51°16.541 2°53.884 312.1 12.6 312 12.7
2007-12-18 08:08:14 51°16.552 2°53.863 312.4 12.6 312 12.6
2007-12-18 08:08:19 51°16.564 2°53.843 313.1 12.6 312 12.5
2007-12-18 08:08:24 51°16.576 2°53.822 312.8 12.6 312 12.5
2007-12-18 08:08:29 51°16.587 2°53.801 313 12.6 313 12.5
2007-12-18 08:08:34 51°16.599 2°53.78 313.4 12.7 312 12.8
2007-12-18 08:08:39 51°16.611 2°53.76 313 12.6 312 12.6
2007-12-18 08:08:44 51°16.623 2°53.739 313.3 12.5 312 12.3
2007-12-18 08:08:49 51°16.635 2°53.719 313 12.5 313 12.5
2007-12-18 08:08:54 51°16.646 2°53.699 313.3 12.6 312 12.5
2007-12-18 08:08:59 51°16.658 2°53.678 312.9 12.6 312 12.5
2007-12-18 08:09:04 51°16.67 2°53.657 312.7 12.6 312 12.5
2007-12-18 08:09:09 51°16.681 2°53.636 312.1 12.5 312 12.4
2007-12-18 08:09:14 51°16.692 2°53.615 312 12.5 311 12.6
2007-12-18 08:09:19 51°16.704 2°53.594 311.8 12.6 310 12.7
2007-12-18 08:09:24 51°16.716 2°53.573 311.5 12.6 312 12.6
2007-12-18 08:09:29 51°16.727 2°53.552 311.6 12.6 311 12.5
2007-12-18 08:09:34 51°16.739 2°53.531 312 12.7 312 12.5
2007-12-18 08:09:39 51°16.75 2°53.51 312 12.7 311 12.5
2007-12-18 08:09:44 51°16.762 2°53.489 312.8 12.7 312 12.6
2007-12-18 08:09:49 51°16.773 2°53.468 312.2 12.7 312 12.6
2007-12-18 08:09:54 51°16.785 2°53.446 311.3 12.7 309 12.5
2007-12-18 08:09:59 51°16.795 2°53.425 310.1 12.6 309 12.4
2007-12-18 08:10:04 51°16.806 2°53.402 308.6 12.6 306 12.5
2007-12-18 08:10:09 51°16.816 2°53.38 307.4 12.6 306 12.5
2007-12-18 08:10:14 51°16.826 2°53.357 306.2 12.5 305 12.3
2007-12-18 08:10:19 51°16.836 2°53.335 306.7 12.5 306 11.9
2007-12-18 08:10:24 51°16.846 2°53.313 305.9 12.5 306 11.8
2007-12-18 08:10:29 51°16.856 2°53.29 306.2 12.5 306 11.5
2007-12-18 08:10:34 51°16.866 2°53.268 306.4 12.5 306 11
2007-12-18 08:10:39 51°16.877 2°53.246 306.3 12.4 306 10.4
2007-12-18 08:10:44 51°16.887 2°53.223 306.5 12.5 306 10
2007-12-18 08:10:49 51°16.897 2°53.201 306.2 12.4 306 9.7
2007-12-18 08:10:54 51°16.906 2°53.178 305.8 12.2 305 9.5
2007-12-18 08:10:59 51°16.916 2°53.156 305.1 12.3 305 9.5
2007-12-18 08:11:04 51°16.926 2°53.133 304.9 12.3 305 9.7
2007-12-18 08:11:09 51°16.936 2°53.111 304.6 12.4 305 9.7
2007-12-18 08:11:14 51°16.945 2°53.088 304.3 12.5 303 9.6
2007-12-18 08:11:19 51°16.955 2°53.065 304.3 12.5 304 9.6
2007-12-18 08:11:24 51°16.965 2°53.042 304.8 12.5 304 9.3
2007-12-18 08:11:29 51°16.975 2°53.02 305 12.4 306 9.6
2007-12-18 08:11:34 51°16.985 2°52.997 305.5 12.5 305 9.8
2007-12-18 08:11:39 51°16.995 2°52.974 305.7 12.6 305 10
2007-12-18 08:11:44 51°17.004 2°52.951 305.7 12.6 304 9.9
2007-12-18 08:11:49 51°17.014 2°52.928 305.2 12.6 305 10
2007-12-18 08:11:54 51°17.024 2°52.905 305 12.5 304 10.2
2007-12-18 08:11:59 51°17.034 2°52.882 305.2 12.6 305 10.5
2007-12-18 08:12:04 51°17.044 2°52.859 304.9 12.6 304 10.8
2007-12-18 08:12:09 51°17.054 2°52.836 304.4 12.6 304 11
2007-12-18 08:12:14 51°17.063 2°52.813 304.3 12.6 303 11
2007-12-18 08:12:19 51°17.073 2°52.789 303.8 12.7 303 11.2
2007-12-18 08:12:24 51°17.082 2°52.766 303.6 12.5 303 11.1
2007-12-18 08:12:29 51°17.091 2°52.742 302.9 12.6 302 11.5
2007-12-18 08:12:34 51°17.101 2°52.719 303.9 12.4 303 11.1
2007-12-18 08:12:39 51°17.11 2°52.695 302.6 12.4 301 10.6
2007-12-18 08:12:44 51°17.12 2°52.673 303.2 12.4 305 10.8
2007-12-18 08:12:49 51°17.13 2°52.65 304.8 12.5 305 10.7
2007-12-18 08:12:54 51°17.141 2°52.628 307.1 12.6 308 10.8
2007-12-18 08:12:59 51°17.151 2°52.606 308.7 12.6 309 11
2007-12-18 08:13:04 51°17.163 2°52.585 310.2 12.7 310 10.9
2007-12-18 08:13:09 51°17.174 2°52.564 310.9 12.7 310 11
2007-12-18 08:13:14 51°17.187 2°52.544 312.3 12.7 315 11
2007-12-18 08:13:19 51°17.199 2°52.523 314.5 12.8 315 11.2
2007-12-18 08:13:24 51°17.212 2°52.504 316.4 12.8 317 11.4
2007-12-18 08:13:29 51°17.225 2°52.485 318.1 12.8 317 11.2
2007-12-18 08:13:34 51°17.238 2°52.466 318.3 12.8 319 11.2
2007-12-18 08:13:39 51°17.253 2°52.449 320.8 12.9 322 11.4
2007-12-18 08:13:44 51°17.267 2°52.431 323.4 12.8 323 11.5
2007-12-18 08:13:49 51°17.281 2°52.415 324.5 12.8 324 11.3
2007-12-18 08:13:54 51°17.296 2°52.398 325.8 12.9 325 11.6
2007-12-18 08:13:59 51°17.31 2°52.382 326.4 12.9 325 11.8
2007-12-18 08:14:04 51°17.325 2°52.366 327.4 12.9 326 11.7
2007-12-18 08:14:09 51°17.34 2°52.35 327.4 12.9 326 11.5
2007-12-18 08:14:14 51°17.355 2°52.334 328 12.9 327 11.5
2007-12-18 08:14:19 51°17.37 2°52.318 327.8 12.9 326 11.5
2007-12-18 08:14:24 51°17.385 2°52.302 328.2 13 327 11.8
2007-12-18 08:14:29 51°17.4 2°52.286 328.3 12.9 326 11.7
2007-12-18 08:14:34 51°17.415 2°52.27 328.2 13 327 11.7
2007-12-18 08:14:39 51°17.43 2°52.255 328.5 12.9 327 11.6
2007-12-18 08:14:44 51°17.445 2°52.239 328.8 12.9 327 11.9
2007-12-18 08:14:48 51°17.457 2°52.227 329.7 13 328 12.1
2007-12-18 08:14:54 51°17.475 2°52.209 330.7 12.8 329 11.6
2007-12-18 08:14:59 51°17.491 2°52.195 331.2 12.9 329 11.6
2007-12-18 08:15:04 51°17.506 2°52.181 331.6 12.9 330 11.5
2007-12-18 08:15:09 51°17.522 2°52.167 331.8 12.8 331 11.5
2007-12-18 08:15:14 51°17.538 2°52.155 334.2 12.9 336 11.8
2007-12-18 08:15:19 51°17.555 2°52.144 338.2 12.9 338 11.7
2007-12-18 08:15:24 51°17.571 2°52.134 340.4 13 339 11.9
2007-12-18 08:15:29 51°17.588 2°52.125 343 12.9 341 11.8
2007-12-18 08:15:34 51°17.605 2°52.116 344.3 13 343 11.7
2007-12-18 08:15:39 51°17.623 2°52.107 345.1 13 341 11.6
2007-12-18 08:15:44 51°17.64 2°52.098 344.6 12.9 342 11.6
2007-12-18 08:15:49 51°17.657 2°52.088 344 13 340 11.8
2007-12-18 08:15:54 51°17.674 2°52.079 343.6 13 341 11.6
2007-12-18 08:15:59 51°17.691 2°52.068 343.1 13 339 11.7
2007-12-18 08:16:04 51°17.707 2°52.058 342.2 12.9 339 11.4
2007-12-18 08:16:09 51°17.724 2°52.048 341.6 12.8 338 11.4
2007-12-18 08:16:14 51°17.741 2°52.037 341.1 12.9 338 11.9
2007-12-18 08:16:19 51°17.757 2°52.026 341.4 12.9 339 11.8
2007-12-18 08:16:24 51°17.774 2°52.016 341.3 12.7 338 11.4
2007-12-18 08:16:29 51°17.79 2°52.006 341.3 12.8 339 11.7
2007-12-18 08:16:34 51°17.807 2°51.995 341.4 12.8 339 11.7
2007-12-18 08:16:39 51°17.823 2°51.985 341.8 12.8 339 11.5
2007-12-18 08:16:44 51°17.84 2°51.975 341.4 12.8 339 11.4
2007-12-18 08:16:48 51°17.853 2°51.966 341.2 13 338 11.6
2007-12-18 08:16:54 51°17.873 2°51.954 341.4 12.9 339 11.4
2007-12-18 08:16:59 51°17.89 2°51.944 341.3 12.9 339 11.4
2007-12-18 08:17:04 51°17.907 2°51.933 341.6 13 338 11.7
2007-12-18 08:17:09 51°17.923 2°51.922 341.1 13 337 11.8
2007-12-18 08:17:14 51°17.94 2°51.91 340.2 12.8 336 11.5
2007-12-18 08:17:19 51°17.956 2°51.898 338.8 12.8 335 11.4
2007-12-18 08:17:24 51°17.971 2°51.885 337.1 12.8 332 11.8
2007-12-18 08:17:29 51°17.987 2°51.871 334.3 12.8 330 11.8
2007-12-18 08:17:34 51°18.002 2°51.856 332.4 12.9 329 11.8
2007-12-18 08:17:39 51°18.017 2°51.841 331 12.9 327 11.8
2007-12-18 08:17:44 51°18.032 2°51.825 329.7 12.8 327 11.9
2007-12-18 08:17:49 51°18.046 2°51.809 328.3 12.8 324 11.8
2007-12-18 08:17:55 51°18.062 2°51.786 324.6 12.7 319 11.8
2007-12-18 08:17:59 51°18.073 2°51.772 321.6 12.7 318 11.9
2007-12-18 08:18:04 51°18.086 2°51.752 319.6 12.7 316 12.2
2007-12-18 08:18:08 51°18.096 2°51.736 318.2 12.7 315 12.1
2007-12-18 08:18:14 51°18.11 2°51.712 316.6 12.8 313 12.2
2007-12-18 08:18:19 51°18.123 2°51.691 315.7 12.8 314 12.2
2007-12-18 08:18:24 51°18.135 2°51.671 315.4 12.9 313 12.6
2007-12-18 08:18:29 51°18.147 2°51.65 315.7 12.8 314 12.2
2007-12-18 08:18:34 51°18.159 2°51.63 315.8 12.7 314 12.4
2007-12-18 08:18:39 51°18.171 2°51.609 315.7 12.8 313 12.5
2007-12-18 08:18:44 51°18.183 2°51.589 315.9 12.8 314 12.7
2007-12-18 08:18:49 51°18.196 2°51.568 315.8 12.9 313 12.8
2007-12-18 08:18:54 51°18.207 2°51.547 314.8 12.8 312 13
2007-12-18 08:18:59 51°18.219 2°51.526 314.2 12.8 312 13
2007-12-18 08:19:04 51°18.231 2°51.505 313.1 12.8 311 13.1
2007-12-18 08:19:09 51°18.243 2°51.484 313.4 12.7 311 13.1
2007-12-18 08:19:14 51°18.254 2°51.463 313.2 12.8 312 13.2
2007-12-18 08:19:19 51°18.266 2°51.442 313.1 12.8 310 13.3
2007-12-18 08:19:24 51°18.278 2°51.42 312.7 12.8 311 13.5
2007-12-18 08:19:29 51°18.289 2°51.399 312.6 12.8 310 13.5
2007-12-18 08:19:34 51°18.3 2°51.377 311.9 12.7 310 13.7
2007-12-18 08:19:39 51°18.312 2°51.355 311.5 12.8 309 13.9
2007-12-18 08:19:44 51°18.322 2°51.333 310.2 12.7 307 13.9
2007-12-18 08:19:49 51°18.333 2°51.311 310.2 12.7 308 13.9
2007-12-18 08:19:54 51°18.344 2°51.289 309.9 12.3 308 14.2
2007-12-18 08:19:59 51°18.354 2°51.268 309.6 11.9 308 14
2007-12-18 08:20:04 51°18.364 2°51.249 309.1 11.5 309 14.1
2007-12-18 08:20:08 51°18.371 2°51.233 309.7 11.1 309 14.1
2007-12-18 08:20:14 51°18.383 2°51.211 310.2 10.4 310 14.4
2007-12-18 08:20:19 51°18.391 2°51.195 310.5 9.5 311 14.2
2007-12-18 08:20:24 51°18.399 2°51.18 310.9 8.9 311 14.5
2007-12-18 08:20:28 51°18.405 2°51.169 311.7 8.3 312 14.5
2007-12-18 08:20:34 51°18.414 2°51.153 312.5 7.9 311 14.8
2007-12-18 08:20:39 51°18.422 2°51.141 313.6 7.4 315 14.7
2007-12-18 08:20:44 51°18.429 2°51.13 314.2 7.1 315 14.8
2007-12-18 08:20:49 51°18.435 2°51.119 315.1 6.8 316 14.8
2007-12-18 08:20:54 51°18.442 2°51.109 315.7 6.6 316 15
2007-12-18 08:20:59 51°18.448 2°51.1 316.4 6.3 317 15.1
2007-12-18 08:21:04 51°18.455 2°51.091 317.2 6 317 15
2007-12-18 08:21:09 51°18.461 2°51.082 317.1 5.7 317 15
2007-12-18 08:21:14 51°18.466 2°51.074 316.5 5.5 317 14.9
2007-12-18 08:21:19 51°18.471 2°51.065 314.4 5.2 316 15
2007-12-18 08:21:24 51°18.476 2°51.057 311.4 5 313 15.1
2007-12-18 08:21:29 51°18.48 2°51.049 308.2 4.8 309 15.2
2007-12-18 08:21:34 51°18.484 2°51.041 304.9 4.6 307 15.1
2007-12-18 08:21:39 51°18.488 2°51.033 302.6 4.4 305 15.1
2007-12-18 08:21:44 51°18.491 2°51.026 300.9 4.2 305 15.2
2007-12-18 08:21:49 51°18.495 2°51.018 299.7 4 306 15
2007-12-18 08:21:54 51°18.497 2°51.011 298.1 3.7 304 15.1
2007-12-18 08:21:59 51°18.5 2°51.005 296.6 3.5 305 15.1
2007-12-18 08:22:04 51°18.502 2°50.999 295.4 3 303 15.2
2007-12-18 08:22:09 51°18.505 2°50.995 297.1 2.6 306 15.1
2007-12-18 08:22:14 51°18.507 2°50.991 301 2.3 313 15.2
2007-12-18 08:22:19 51°18.509 2°50.988 304.9 2 317 15.2
2007-12-18 08:22:24 51°18.51 2°50.986 308.7 1.4 323 15.3
2007-12-18 08:22:29 51°18.511 2°50.985 312.8 0.8 336 15.3
2007-12-18 08:22:34 51°18.512 2°50.985 316.4 0.6 346 15.3
2007-12-18 08:22:39 51°18.513 2°50.984 319 0.6 339 15.2
2007-12-18 08:22:44 51°18.514 2°50.984 320.6 0.7 346 15.3
2007-12-18 08:22:49 51°18.514 2°50.983 321.8 0.6 325 15.3
2007-12-18 08:22:54 51°18.515 2°50.982 322.8 0.6 325 15.3
2007-12-18 08:22:59 51°18.516 2°50.982 323.7 0.7 332 15.3
2007-12-18 08:23:04 51°18.517 2°50.982 324.3 0.7 347 15.2
2007-12-18 08:23:09 51°18.518 2°50.981 324.2 0.6 330 15.3
2007-12-18 08:23:14 51°18.519 2°50.981 324.7 0.7 336 15.2
2007-12-18 08:23:19 51°18.52 2°50.98 325.6 0.7 341 15.2
2007-12-18 08:23:24 51°18.521 2°50.979 326.1 0.7 339 15
2007-12-18 08:23:28 51°18.521 2°50.979 326.6 0.6 325 15.2
2007-12-18 08:23:34 51°18.522 2°50.978 327.8 0.7 319 15.3
2007-12-18 08:23:39 51°18.523 2°50.977 329.2 0.7 346 15.1
2007-12-18 08:23:44 51°18.524 2°50.976 329.5 0.7 317 15.2
2007-12-18 08:23:49 51°18.525 2°50.976 330.2 0.7 335 15.3
2007-12-18 08:23:54 51°18.526 2°50.975 331.4 0.7 328 15.2
2007-12-18 08:23:59 51°18.526 2°50.974 332.4 0.7 330 15.2
2007-12-18 08:24:04 51°18.527 2°50.973 333.2 0.6 327 15.1
2007-12-18 08:24:09 51°18.528 2°50.973 333.6 0.5 331 15.1
2007-12-18 08:24:14 51°18.528 2°50.972 333.5 0.6 323 15.2
2007-12-18 08:24:19 51°18.529 2°50.971 333.8 0.6 317 15.2
2007-12-18 08:24:24 51°18.529 2°50.97 334.3 0.5 327 15.3
2007-12-18 08:24:29 51°18.53 2°50.969 335 0.6 338 15.3
2007-12-18 08:24:34 51°18.531 2°50.968 334.6 0.6 328 15.3
2007-12-18 08:24:39 51°18.531 2°50.968 334.8 0.6 318 15.2
2007-12-18 08:24:44 51°18.532 2°50.967 335.2 0.6 329 15.2
2007-12-18 08:24:49 51°18.533 2°50.967 335.8 0.6 330 15.3
2007-12-18 08:24:54 51°18.534 2°50.966 336 0.6 326 15.4
2007-12-18 08:24:59 51°18.534 2°50.965 336.6 0.6 333 15.4
2007-12-18 08:25:04 51°18.535 2°50.965 337.2 0.5 329 15.4
2007-12-18 08:25:09 51°18.536 2°50.964 337.6 0.6 337 15.3
2007-12-18 08:25:14 51°18.536 2°50.963 337.8 0.5 337 15.3
2007-12-18 08:25:19 51°18.537 2°50.963 338 0.5 327 15.3
2007-12-18 08:25:24 51°18.538 2°50.962 338.2 0.6 325 15.2
2007-12-18 08:25:29 51°18.538 2°50.961 338.9 0.6 328 15.4
2007-12-18 08:25:34 51°18.539 2°50.96 339.2 0.6 332 15.3
2007-12-18 08:25:39 51°18.54 2°50.96 339.5 0.5 335 15.3
2007-12-18 08:25:44 51°18.54 2°50.96 340.1 0.6 338 15.4
2007-12-18 08:25:49 51°18.541 2°50.959 340.5 0.6 332 15.4
2007-12-18 08:25:54 51°18.542 2°50.958 340.9 0.6 326 15.4
2007-12-18 08:25:59 51°18.542 2°50.958 341.6 0.5 326 15.3
2007-12-18 08:26:04 51°18.543 2°50.957 341.9 0.5 332 15.2
2007-12-18 08:26:09 51°18.543 2°50.956 342.1 0.5 345 15.3
2007-12-18 08:26:14 51°18.544 2°50.955 342.1 0.6 322 15.3
2007-12-18 08:26:19 51°18.544 2°50.955 342.5 0.5 334 15.2
2007-12-18 08:26:24 51°18.545 2°50.954 342.8 0.5 334 15.2
2007-12-18 08:26:29 51°18.546 2°50.953 343.1 0.6 334 15.2
2007-12-18 08:26:34 51°18.546 2°50.952 343.5 0.6 332 15.4
2007-12-18 08:26:39 51°18.547 2°50.952 343.7 0.7 326 15.4
2007-12-18 08:26:44 51°18.547 2°50.951 344.6 0.6 333 15.2
2007-12-18 08:26:48 51°18.548 2°50.951 344.8 0.5 332 15.3
2007-12-18 08:26:55 51°18.549 2°50.949 344.8 0.6 327 15.3
2007-12-18 08:26:59 51°18.549 2°50.949 345 0.7 326 15.2
2007-12-18 08:27:04 51°18.55 2°50.948 345.5 0.8 334 15.1
2007-12-18 08:27:09 51°18.551 2°50.947 346.2 1 337 15.1
2007-12-18 08:27:14 51°18.553 2°50.946 347.4 1.1 336 15.1
2007-12-18 08:27:19 51°18.554 2°50.945 349.1 1.3 338 15.3
2007-12-18 08:27:24 51°18.556 2°50.944 351.2 1.5 342 15.4
2007-12-18 08:27:29 51°18.558 2°50.943 353.6 1.8 343 15.3
2007-12-18 08:27:34 51°18.561 2°50.942 356.5 2.1 350 15.4
2007-12-18 08:27:40 51°18.565 2°50.941 0.4 2.3 356 15.3
2007-12-18 08:27:44 51°18.568 2°50.941 4.5 2.5 1 15.3
2007-12-18 08:27:49 51°18.571 2°50.942 8.8 2.6 2 15.4
2007-12-18 08:27:54 51°18.575 2°50.942 13.2 2.7 5 15.3
2007-12-18 08:27:59 51°18.579 2°50.943 18.2 2.9 11 15.5
2007-12-18 08:28:04 51°18.583 2°50.945 24.1 3 15 15.3
2007-12-18 08:28:09 51°18.587 2°50.947 27.8 3.1 18 15.3
2007-12-18 08:28:14 51°18.592 2°50.95 32 3.2 22 15.4
2007-12-18 08:28:19 51°18.596 2°50.953 36.8 3.4 28 15.4
2007-12-18 08:28:24 51°18.6 2°50.957 42.7 3.7 33 15.4
2007-12-18 08:28:29 51°18.604 2°50.963 46.9 3.8 39 15.4
2007-12-18 08:28:34 51°18.608 2°50.969 53 3.9 45 15.5
2007-12-18 08:28:39 51°18.611 2°50.975 59.7 4 52 15.5
2007-12-18 08:28:44 51°18.615 2°50.983 66.4 4.2 57 15.4
2007-12-18 08:28:49 51°18.617 2°50.992 73.1 4.4 63 15.4
2007-12-18 08:28:54 51°18.62 2°51.001 77.6 4.9 65 15.3
2007-12-18 08:28:59 51°18.623 2°51.012 79.7 5.6 68 15.4
2007-12-18 08:29:04 51°18.626 2°51.025 79.6 6.3 68 15.3
2007-12-18 08:29:09 51°18.63 2°51.039 76.9 7.1 66 15.3
2007-12-18 08:29:14 51°18.635 2°51.055 74.8 7.9 65 15.3
2007-12-18 08:29:19 51°18.64 2°51.072 72.9 8.5 63 15.2
2007-12-18 08:29:24 51°18.645 2°51.089 71.6 8.8 64 15.4
2007-12-18 08:29:29 51°18.651 2°51.108 71.2 9.3 63 15.4
2007-12-18 08:29:34 51°18.657 2°51.126 70.9 9.6 63 15.5
2007-12-18 08:29:39 51°18.663 2°51.146 70.4 9.9 63 15.3
2007-12-18 08:29:44 51°18.67 2°51.166 70.1 10.1 63 15.6
2007-12-18 08:29:48 51°18.675 2°51.182 70.2 10.3 63 15.4
2007-12-18 08:29:54 51°18.682 2°51.207 70.8 10.5 65 15.4
2007-12-18 08:29:59 51°18.689 2°51.228 72.1 10.6 64 15.4
2007-12-18 08:30:04 51°18.695 2°51.249 72.2 10.7 66 15.3
2007-12-18 08:30:08 51°18.699 2°51.267 73.1 10.8 66 15.3
2007-12-18 08:30:14 51°18.706 2°51.293 73.5 10.8 68 15.4
2007-12-18 08:30:19 51°18.713 2°51.315 74.1 10.9 66 15.4
2007-12-18 08:30:24 51°18.718 2°51.338 74.6 10.9 68 15.4
2007-12-18 08:30:29 51°18.724 2°51.36 74.7 10.9 68 15.3
2007-12-18 08:30:34 51°18.729 2°51.382 75.8 10.9 68 15.3
2007-12-18 08:30:39 51°18.735 2°51.405 75.4 11 69 15.4
2007-12-18 08:30:44 51°18.741 2°51.427 75.7 11 69 15.4
2007-12-18 08:30:49 51°18.746 2°51.45 75.2 11 68 15.2
2007-12-18 08:30:54 51°18.752 2°51.473 75.6 11.1 70 15.3
2007-12-18 08:30:59 51°18.757 2°51.496 76.5 11.2 71 15.2
2007-12-18 08:31:04 51°18.762 2°51.521 78.2 11.6 72 15.2
2007-12-18 08:31:09 51°18.766 2°51.546 79.8 12.1 75 15.2
2007-12-18 08:31:14 51°18.771 2°51.572 80.8 12.3 73 15.1
2007-12-18 08:31:19 51°18.776 2°51.599 81.2 12.5 76 15
2007-12-18 08:31:24 51°18.78 2°51.626 82.1 12.6 75 15
2007-12-18 08:31:29 51°18.783 2°51.654 83.6 12.8 78 14.9
2007-12-18 08:31:34 51°18.788 2°51.682 83.5 12.9 76 14.9
2007-12-18 08:31:39 51°18.791 2°51.71 84.2 13 78 15
2007-12-18 08:31:44 51°18.796 2°51.738 84.2 13 77 14.9
2007-12-18 08:31:49 51°18.799 2°51.767 84.4 13.1 78 14.8
2007-12-18 08:31:54 51°18.804 2°51.795 84.2 13.2 77 14.8
2007-12-18 08:31:59 51°18.807 2°51.824 84.3 13.3 78 14.7
2007-12-18 08:32:04 51°18.811 2°51.852 84.4 13.1 77 14.6
2007-12-18 08:32:08 51°18.813 2°51.875 85.1 13.2 80 14.8
2007-12-18 08:32:14 51°18.818 2°51.909 84.4 13.2 78 14.6
2007-12-18 08:32:19 51°18.822 2°51.938 85.3 13.2 79 14.6
2007-12-18 08:32:24 51°18.826 2°51.966 84.3 13.1 76 14.6
2007-12-18 08:32:29 51°18.831 2°51.994 83.1 13.2 76 14.4
2007-12-18 08:32:34 51°18.836 2°52.023 82.4 13.2 74 14.2
2007-12-18 08:32:39 51°18.84 2°52.051 81.6 13.2 75 14.1
2007-12-18 08:32:44 51°18.845 2°52.079 81.6 13.1 74 14.4
2007-12-18 08:32:49 51°18.85 2°52.107 81.2 13.2 75 14.3
2007-12-18 08:32:54 51°18.855 2°52.136 81.2 13.2 74 14.2
2007-12-18 08:32:59 51°18.86 2°52.163 81.1 13.1 73 14.2
2007-12-18 08:33:04 51°18.865 2°52.192 81.1 13.2 76 14.4
2007-12-18 08:33:09 51°18.87 2°52.219 81.3 13.2 73 14.2
2007-12-18 08:33:14 51°18.875 2°52.248 81.2 13.1 76 14.2
2007-12-18 08:33:19 51°18.88 2°52.275 81.4 13.2 74 14.1
2007-12-18 08:33:24 51°18.885 2°52.304 82 13.2 76 14.1
2007-12-18 08:33:29 51°18.889 2°52.332 82.2 13.3 75 14.1
2007-12-18 08:33:34 51°18.894 2°52.361 82.5 13.3 76 13.9
2007-12-18 08:33:39 51°18.898 2°52.389 83.1 13.3 76 13.9
2007-12-18 08:33:44 51°18.903 2°52.418 83.1 13.2 77 13.7
2007-12-18 08:33:49 51°18.908 2°52.446 82.9 13.2 75 13.6
2007-12-18 08:33:54 51°18.912 2°52.474 82.7 13.2 76 13.5
2007-12-18 08:33:59 51°18.917 2°52.503 82.7 13.2 75 13.6
2007-12-18 08:34:04 51°18.922 2°52.53 81.7 13.2 74 13.6
2007-12-18 08:34:09 51°18.926 2°52.559 82 13.2 76 13.5
2007-12-18 08:34:14 51°18.931 2°52.587 81.6 13.3 74 13.5
2007-12-18 08:34:19 51°18.936 2°52.615 81.3 13.2 75 13.5
2007-12-18 08:34:24 51°18.94 2°52.643 81.6 13.2 75 13.5
2007-12-18 08:34:29 51°18.945 2°52.671 81.8 13.2 75 13.4
2007-12-18 08:34:34 51°18.949 2°52.7 82.3 13.2 76 13.5
2007-12-18 08:34:39 51°18.954 2°52.728 82.4 13.1 75 13.4
2007-12-18 08:34:44 51°18.958 2°52.756 83.1 13.2 77 13.3
2007-12-18 08:34:49 51°18.963 2°52.785 82.5 13.2 75 13.3
2007-12-18 08:34:54 51°18.968 2°52.813 82.3 13.3 76 13.5
2007-12-18 08:34:59 51°18.973 2°52.841 81.9 13.1 74 13.3
2007-12-18 08:35:04 51°18.977 2°52.869 81.6 13.2 77 13.2
2007-12-18 08:35:08 51°18.981 2°52.892 82.5 13.2 74 13.2
2007-12-18 08:35:14 51°18.987 2°52.925 81.8 13 76 13.1
2007-12-18 08:35:19 51°18.991 2°52.953 82.7 13 74 13
2007-12-18 08:35:24 51°18.996 2°52.981 82.1 13.2 76 13.1
2007-12-18 08:35:28 51°19 2°53.004 82 13.2 75 13.2
2007-12-18 08:35:34 51°19.005 2°53.038 82.5 13.1 77 13.2
2007-12-18 08:35:39 51°19.01 2°53.066 82.3 13.1 75 13.1
2007-12-18 08:35:45 51°19.015 2°53.099 82.3 13.1 77 13.2
2007-12-18 08:35:49 51°19.018 2°53.122 82.8 13.1 75 12.9
2007-12-18 08:35:54 51°19.023 2°53.15 82.4 12.9 75 12.9
2007-12-18 08:35:59 51°19.027 2°53.178 81.9 13.1 75 13
2007-12-18 08:36:04 51°19.034 2°53.205 80 13.1 71 12.9
2007-12-18 08:36:09 51°19.038 2°53.233 79.4 13 74 13
2007-12-18 08:36:14 51°19.044 2°53.26 79.5 13.1 70 13
2007-12-18 08:36:19 51°19.05 2°53.288 78.2 13.2 73 13
2007-12-18 08:36:24 51°19.056 2°53.315 78.2 13.1 70 13
2007-12-18 08:36:28 51°19.061 2°53.337 77.7 13.1 72 12.9
2007-12-18 08:36:34 51°19.068 2°53.37 78.1 13.1 70 12.9
2007-12-18 08:36:39 51°19.074 2°53.398 77.8 13.3 71 13.1
2007-12-18 08:36:44 51°19.079 2°53.426 77.4 13.2 71 13.1
2007-12-18 08:36:49 51°19.085 2°53.453 77.7 13.2 71 12.9
2007-12-18 08:36:54 51°19.091 2°53.481 77.7 13.2 72 13
2007-12-18 08:36:59 51°19.097 2°53.509 78.3 13.2 72 12.7
2007-12-18 08:37:04 51°19.103 2°53.536 78.5 13.1 71 12.9
2007-12-18 08:37:09 51°19.108 2°53.564 78.8 13.1 73 12.8
2007-12-18 08:37:14 51°19.114 2°53.592 79.5 13.3 72 13
2007-12-18 08:37:19 51°19.119 2°53.62 79.1 13.2 72 12.9
2007-12-18 08:37:24 51°19.124 2°53.648 79.9 13.2 73 12.9
2007-12-18 08:37:28 51°19.129 2°53.67 79.8 13.2 73 13
2007-12-18 08:37:34 51°19.135 2°53.704 79.8 13.2 73 13
2007-12-18 08:37:39 51°19.14 2°53.732 80.8 13.2 74 12.9
2007-12-18 08:37:45 51°19.146 2°53.766 80.9 13.3 74 13.1
2007-12-18 08:37:48 51°19.149 2°53.783 80.7 13.1 74 12.9
2007-12-18 08:37:54 51°19.156 2°53.816 80.4 13.1 73 12.8
2007-12-18 08:37:59 51°19.161 2°53.844 80.9 13.2 74 12.8
2007-12-18 08:38:04 51°19.166 2°53.872 79.8 13.1 71 12.7
2007-12-18 08:38:08 51°19.17 2°53.895 80.3 13.1 76 12.8
2007-12-18 08:38:14 51°19.177 2°53.927 79.2 13.1 71 12.9
2007-12-18 08:38:19 51°19.182 2°53.955 79.5 13.1 73 12.8
2007-12-18 08:38:24 51°19.187 2°53.983 79.7 13.3 73 13
2007-12-18 08:38:28 51°19.192 2°54.005 79.1 13.2 73 12.9
2007-12-18 08:38:34 51°19.198 2°54.039 79.9 13 73 12.8
2007-12-18 08:38:39 51°19.203 2°54.066 79.7 13 73 12.8
2007-12-18 08:38:44 51°19.208 2°54.094 80 13.2 74 13
2007-12-18 08:38:48 51°19.213 2°54.116 79.1 13.2 72 12.9
2007-12-18 08:38:54 51°19.219 2°54.15 79.9 13.1 74 12.8
2007-12-18 08:38:59 51°19.224 2°54.177 79.8 13.2 72 13
2007-12-18 08:39:04 51°19.229 2°54.205 79.1 13.1 73 12.9
2007-12-18 08:39:08 51°19.234 2°54.228 79.8 13.1 72 12.7
2007-12-18 08:39:14 51°19.24 2°54.26 79.1 13 72 12.7
2007-12-18 08:39:19 51°19.246 2°54.288 78.9 13.1 72 12.6
2007-12-18 08:39:24 51°19.252 2°54.315 78.3 13.1 71 12.7
2007-12-18 08:39:28 51°19.256 2°54.338 78.4 13.1 73 12.7
2007-12-18 08:39:34 51°19.263 2°54.371 78.6 13.2 71 12.8
2007-12-18 08:39:39 51°19.268 2°54.399 78.5 13 74 12.7
2007-12-18 08:39:44 51°19.274 2°54.426 79.5 13 72 12.7
2007-12-18 08:39:49 51°19.279 2°54.454 79.4 13.1 73 12.7
2007-12-18 08:39:54 51°19.284 2°54.482 79.6 13.2 74 12.7
2007-12-18 08:39:59 51°19.29 2°54.51 80 13.1 73 12.8
2007-12-18 08:40:04 51°19.295 2°54.538 79.8 13.1 74 12.8
2007-12-18 08:40:09 51°19.3 2°54.566 79.8 13.2 73 12.8
2007-12-18 08:40:14 51°19.306 2°54.594 79.2 13.2 73 12.8
2007-12-18 08:40:19 51°19.311 2°54.621 78.2 13.2 72 12.8
2007-12-18 08:40:24 51°19.317 2°54.649 78.5 13.1 74 12.6
2007-12-18 08:40:28 51°19.322 2°54.671 78.3 13.1 71 12.5
2007-12-18 08:40:34 51°19.328 2°54.704 78.6 13.2 73 12.7
2007-12-18 08:40:39 51°19.334 2°54.732 78.4 13.2 72 12.6
2007-12-18 08:40:45 51°19.34 2°54.765 79.1 13.1 74 12.7
2007-12-18 08:40:48 51°19.343 2°54.782 78.9 13.1 72 12.7
2007-12-18 08:40:54 51°19.35 2°54.814 77.5 13 71 12.7
2007-12-18 08:40:59 51°19.356 2°54.842 78.1 13 72 12.5
2007-12-18 08:41:04 51°19.362 2°54.869 77.1 13.2 70 12.8
2007-12-18 08:41:09 51°19.368 2°54.896 76.9 13.1 71 12.6
2007-12-18 08:41:14 51°19.375 2°54.923 76.9 13.1 69 12.6
2007-12-18 08:41:19 51°19.38 2°54.951 76.4 13.1 71 12.8
2007-12-18 08:41:24 51°19.387 2°54.978 76.5 13.1 70 12.6
2007-12-18 08:41:29 51°19.392 2°55.006 77.2 13.1 72 12.6
2007-12-18 08:41:34 51°19.398 2°55.033 76.9 13.1 70 12.5
2007-12-18 08:41:39 51°19.404 2°55.06 77.4 13.1 72 12.6
2007-12-18 08:41:44 51°19.41 2°55.088 78.3 13.2 72 12.7
2007-12-18 08:41:49 51°19.415 2°55.116 78 13.2 73 12.7
2007-12-18 08:41:54 51°19.421 2°55.143 78.3 13.1 71 12.5
2007-12-18 08:41:59 51°19.427 2°55.171 78 13.2 71 12.6
2007-12-18 08:42:04 51°19.433 2°55.198 76.8 13.1 71 12.5
2007-12-18 08:42:09 51°19.438 2°55.226 77 13.2 71 12.6
2007-12-18 08:42:14 51°19.444 2°55.253 76.9 13.1 71 12.6
2007-12-18 08:42:19 51°19.45 2°55.28 76.9 13.1 71 12.7
2007-12-18 08:42:24 51°19.456 2°55.308 77.4 13.1 71 12.6
2007-12-18 08:42:28 51°19.461 2°55.33 76.9 13.1 70 12.7
2007-12-18 08:42:34 51°19.467 2°55.363 77.6 13.1 72 12.6
2007-12-18 08:42:39 51°19.473 2°55.39 77.5 13 70 12.5
2007-12-18 08:42:44 51°19.478 2°55.418 77.6 13.1 73 12.6
2007-12-18 08:42:48 51°19.483 2°55.44 77.4 13.1 70 12.5
2007-12-18 08:42:54 51°19.49 2°55.473 76.9 13.1 72 12.6
2007-12-18 08:42:59 51°19.496 2°55.5 76.9 13.1 70 12.6
2007-12-18 08:43:04 51°19.501 2°55.528 77.5 13.2 74 12.6
2007-12-18 08:43:08 51°19.507 2°55.55 77.1 13.2 69 12.5
2007-12-18 08:43:14 51°19.513 2°55.582 76.4 13 73 12.6
2007-12-18 08:43:19 51°19.52 2°55.609 77.1 13.1 70 12.5
2007-12-18 08:43:24 51°19.526 2°55.637 76.4 13.1 71 12.5
2007-12-18 08:43:28 51°19.53 2°55.659 76.9 13.1 71 12.7
2007-12-18 08:43:34 51°19.538 2°55.692 76.4 13 71 12.5
2007-12-18 08:43:39 51°19.543 2°55.719 76.8 13 72 12.5
2007-12-18 08:43:44 51°19.55 2°55.746 76.8 13.1 71 12.6
2007-12-18 08:43:49 51°19.555 2°55.774 76.9 13.1 72 12.6
2007-12-18 08:43:54 51°19.561 2°55.802 77 13.1 72 12.5
2007-12-18 08:43:59 51°19.566 2°55.829 77.5 13 72 12.4
2007-12-18 08:44:04 51°19.571 2°55.857 78.3 13.2 74 12.5
2007-12-18 08:44:09 51°19.577 2°55.884 78.1 13.1 71 12.6
2007-12-18 08:44:14 51°19.582 2°55.912 77.5 13 75 12.6
2007-12-18 08:44:19 51°19.588 2°55.94 78.3 13.1 72 12.3
2007-12-18 08:44:24 51°19.593 2°55.967 77.8 13.1 73 12.2
2007-12-18 08:44:28 51°19.598 2°55.989 78.3 13 73 12.1
2007-12-18 08:44:34 51°19.604 2°56.022 78.3 13 72 12.4
2007-12-18 08:44:39 51°19.609 2°56.05 78 13 73 12.2
2007-12-18 08:44:44 51°19.615 2°56.077 77.6 13.1 71 12.5
2007-12-18 08:44:48 51°19.619 2°56.1 77.4 13.1 73 12.4
2007-12-18 08:44:54 51°19.626 2°56.133 77.6 13.1 71 12.4
2007-12-18 08:44:59 51°19.631 2°56.16 77.4 13 73 12.4
2007-12-18 08:45:04 51°19.637 2°56.187 77.6 13 71 12.3
2007-12-18 08:45:08 51°19.641 2°56.21 77.8 13.1 73 12.4
2007-12-18 08:45:14 51°19.648 2°56.243 77.5 13.1 73 12.3
2007-12-18 08:45:19 51°19.653 2°56.27 77.6 13 73 12.1
2007-12-18 08:45:24 51°19.659 2°56.298 77.8 13 72 12.1
2007-12-18 08:45:28 51°19.663 2°56.32 77.4 13 72 12.2
2007-12-18 08:45:34 51°19.67 2°56.353 77.3 13.1 72 12.2
2007-12-18 08:45:39 51°19.675 2°56.381 77.6 13.1 73 12.3
2007-12-18 08:45:44 51°19.681 2°56.408 77.2 13 72 12.1
2007-12-18 08:45:48 51°19.685 2°56.43 77.6 13 72 12
2007-12-18 08:45:54 51°19.692 2°56.463 76.8 13.1 72 12.1
2007-12-18 08:45:59 51°19.698 2°56.49 77.4 13.1 72 12.2
2007-12-18 08:46:04 51°19.704 2°56.518 76.7 13.1 72 12.2
2007-12-18 08:46:08 51°19.708 2°56.54 76.2 13.1 72 12.2
2007-12-18 08:46:14 51°19.715 2°56.573 76.4 13.1 72 12.2
2007-12-18 08:46:19 51°19.721 2°56.601 76.4 13.1 71 12
2007-12-18 08:46:24 51°19.727 2°56.628 76 13.2 71 12.1
2007-12-18 08:46:28 51°19.731 2°56.65 76.1 13.1 73 12.1
2007-12-18 08:46:34 51°19.737 2°56.683 76.6 13 72 12.1
2007-12-18 08:46:39 51°19.742 2°56.711 77.7 13.1 72 12
2007-12-18 08:46:44 51°19.748 2°56.739 77.3 13.1 73 12.2
2007-12-18 08:46:49 51°19.753 2°56.766 77.2 13.1 73 12
2007-12-18 08:46:54 51°19.758 2°56.794 78 13.1 73 12.1
2007-12-18 08:46:59 51°19.764 2°56.822 77.7 13.1 73 12.2
2007-12-18 08:47:04 51°19.769 2°56.849 77.7 13 73 12.1
2007-12-18 08:47:09 51°19.774 2°56.877 77.8 13 73 11.9
2007-12-18 08:47:14 51°19.779 2°56.904 77.8 13 72 12.1
2007-12-18 08:47:19 51°19.784 2°56.932 77.3 13.1 74 12.3
2007-12-18 08:47:24 51°19.79 2°56.96 76.9 13.1 71 12.1
2007-12-18 08:47:28 51°19.794 2°56.982 76.4 13.1 73 12.3
2007-12-18 08:47:34 51°19.801 2°57.015 76.9 12.9 73 12.1
2007-12-18 08:47:39 51°19.806 2°57.042 77.4 12.9 73 11.9
2007-12-18 08:47:44 51°19.811 2°57.07 78.3 13.1 75 11.9
2007-12-18 08:47:48 51°19.815 2°57.092 77.6 13.1 73 12.2
2007-12-18 08:47:54 51°19.821 2°57.125 77.6 12.9 75 12.1
2007-12-18 08:47:59 51°19.827 2°57.152 78.1 13 72 12.1
2007-12-18 08:48:04 51°19.832 2°57.18 77.7 13 74 11.9
2007-12-18 08:48:08 51°19.836 2°57.202 77.7 13 72 11.9
2007-12-18 08:48:14 51°19.842 2°57.235 77.7 12.9 74 11.8
2007-12-18 08:48:19 51°19.848 2°57.263 77.4 13 73 11.9
2007-12-18 08:48:24 51°19.853 2°57.29 77.2 12.9 73 11.8
2007-12-18 08:48:28 51°19.857 2°57.312 77.8 13.1 74 11.9
2007-12-18 08:48:34 51°19.864 2°57.345 77.4 13 72 11.9
2007-12-18 08:48:39 51°19.869 2°57.373 77.8 12.9 74 11.9
2007-12-18 08:48:44 51°19.874 2°57.4 77.6 13 73 11.8
2007-12-18 08:48:49 51°19.879 2°57.428 76.9 13 72 11.8
2007-12-18 08:48:54 51°19.885 2°57.455 76.6 13 73 11.9
2007-12-18 08:48:59 51°19.89 2°57.483 76.5 13 72 11.8
2007-12-18 08:49:04 51°19.896 2°57.51 76.2 13 72 11.9
2007-12-18 08:49:09 51°19.901 2°57.537 76 13 72 12.1
2007-12-18 08:49:14 51°19.907 2°57.565 75.4 13 72 11.9
2007-12-18 08:49:19 51°19.912 2°57.592 76 13 72 11.8
2007-12-18 08:49:24 51°19.917 2°57.62 75.7 13 73 11.9
2007-12-18 08:49:28 51°19.922 2°57.642 76.3 12.9 72 11.9
2007-12-18 08:49:34 51°19.928 2°57.674 76.2 12.9 73 12
2007-12-18 08:49:39 51°19.933 2°57.701 76.7 12.9 73 11.8
2007-12-18 08:49:44 51°19.939 2°57.729 77.4 13 74 11.7
2007-12-18 08:49:48 51°19.942 2°57.751 77.7 12.9 73 11.8
2007-12-18 08:49:54 51°19.948 2°57.784 77.9 13 77 11.8
2007-12-18 08:49:59 51°19.953 2°57.812 79.1 13.1 73 11.9
2007-12-18 08:50:04 51°19.958 2°57.84 77.3 12.8 75 11.8
2007-12-18 08:50:08 51°19.961 2°57.862 78.7 12.9 75 11.8
2007-12-18 08:50:14 51°19.967 2°57.895 78 13 74 11.7
2007-12-18 08:50:19 51°19.972 2°57.922 77.8 12.9 74 11.6
2007-12-18 08:50:24 51°19.977 2°57.949 77.7 12.8 73 11.6
2007-12-18 08:50:28 51°19.981 2°57.971 77.8 12.9 74 11.5
2007-12-18 08:50:34 51°19.988 2°58.004 77.5 12.9 73 11.7
2007-12-18 08:50:39 51°19.992 2°58.032 77.9 12.9 76 11.7
2007-12-18 08:50:44 51°19.997 2°58.059 78.5 12.9 73 11.5
2007-12-18 08:50:48 51°20.001 2°58.081 78 12.8 75 11.7
2007-12-18 08:50:54 51°20.007 2°58.114 78.2 12.8 74 11.5
2007-12-18 08:50:59 51°20.012 2°58.141 78.2 12.9 74 11.6
2007-12-18 08:51:04 51°20.016 2°58.169 77.8 12.9 75 11.9
2007-12-18 08:51:08 51°20.02 2°58.191 77.9 12.9 74 11.8
2007-12-18 08:51:14 51°20.027 2°58.223 77.5 12.8 73 11.7
2007-12-18 08:51:19 51°20.031 2°58.251 77.6 12.9 74 11.6
2007-12-18 08:51:24 51°20.037 2°58.278 77.3 13 74 11.7
2007-12-18 08:51:28 51°20.04 2°58.3 77.6 12.9 74 11.6
2007-12-18 08:51:34 51°20.047 2°58.333 77.2 12.8 73 11.7
2007-12-18 08:51:39 51°20.052 2°58.36 77 12.9 73 11.6
2007-12-18 08:51:44 51°20.057 2°58.387 76.7 12.8 72 11.4
2007-12-18 08:51:49 51°20.062 2°58.414 76.2 12.8 73 11.6
2007-12-18 08:51:54 51°20.068 2°58.441 76.3 12.8 71 11.4
2007-12-18 08:51:59 51°20.073 2°58.469 76.3 12.9 73 11.5
2007-12-18 08:52:04 51°20.078 2°58.496 76.4 12.8 73 11.5
2007-12-18 08:52:09 51°20.083 2°58.523 77 12.8 75 11.5
2007-12-18 08:52:14 51°20.088 2°58.551 77.9 12.9 74 11.2
2007-12-18 08:52:19 51°20.093 2°58.578 77.8 12.8 74 11.2
2007-12-18 08:52:24 51°20.097 2°58.605 78.9 12.8 75 11.2
2007-12-18 08:52:28 51°20.101 2°58.627 78.3 12.8 74 11.2
2007-12-18 08:52:34 51°20.107 2°58.66 77.7 12.8 74 11.2
2007-12-18 08:52:39 51°20.112 2°58.687 77.9 12.8 73 11.2
2007-12-18 08:52:44 51°20.117 2°58.714 77.2 12.7 74 11.1
2007-12-18 08:52:48 51°20.121 2°58.736 77.9 12.8 74 11.1
2007-12-18 08:52:54 51°20.127 2°58.769 77.9 12.8 74 11.1
2007-12-18 08:52:59 51°20.131 2°58.796 77.8 12.7 75 11.2
2007-12-18 08:53:04 51°20.135 2°58.823 78.3 12.7 75 11.2
2007-12-18 08:53:08 51°20.139 2°58.845 78.3 12.7 75 11.1
2007-12-18 08:53:14 51°20.144 2°58.878 78.9 12.8 76 11.1
2007-12-18 08:53:19 51°20.15 2°58.905 77.8 12.8 72 11.1
2007-12-18 08:53:24 51°20.154 2°58.932 77.8 12.6 75 10.9
2007-12-18 08:53:28 51°20.158 2°58.953 77.6 12.6 72 10.9
2007-12-18 08:53:34 51°20.164 2°58.985 77 12.7 74 10.9
2007-12-18 08:53:39 51°20.17 2°59.012 76.4 12.8 72 10.9
2007-12-18 08:53:44 51°20.175 2°59.039 76.2 12.8 73 11
2007-12-18 08:53:49 51°20.18 2°59.066 76.3 12.8 72 10.9
2007-12-18 08:53:54 51°20.185 2°59.093 76.4 12.8 73 10.9
2007-12-18 08:53:59 51°20.19 2°59.12 76.5 12.6 73 11
2007-12-18 08:54:04 51°20.196 2°59.147 76.3 12.6 73 10.8
2007-12-18 08:54:09 51°20.202 2°59.174 75.8 12.8 70 10.9
2007-12-18 08:54:14 51°20.207 2°59.2 74 12.7 71 11
2007-12-18 08:54:19 51°20.213 2°59.227 74.2 12.7 70 11.1
2007-12-18 08:54:24 51°20.22 2°59.253 73.3 12.7 69 10.9
2007-12-18 08:54:29 51°20.225 2°59.279 72.9 12.6 70 11
2007-12-18 08:54:34 51°20.231 2°59.306 73.2 12.7 71 10.9
2007-12-18 08:54:39 51°20.238 2°59.332 73.5 12.8 69 10.9
2007-12-18 08:54:44 51°20.243 2°59.358 73.2 12.6 71 10.9
2007-12-18 08:54:48 51°20.248 2°59.38 73.7 12.7 70 10.9
2007-12-18 08:54:54 51°20.256 2°59.411 73.3 12.7 70 10.9
2007-12-18 08:54:59 51°20.261 2°59.438 74.1 12.6 72 10.9
2007-12-18 08:55:04 51°20.267 2°59.465 74.7 12.7 71 10.9
2007-12-18 08:55:09 51°20.272 2°59.491 74.1 12.7 71 11
2007-12-18 08:55:14 51°20.278 2°59.518 75.2 12.7 71 10.9
2007-12-18 08:55:19 51°20.283 2°59.544 75.3 12.6 72 10.7
2007-12-18 08:55:24 51°20.288 2°59.571 75.9 12.6 72 10.9
2007-12-18 08:55:29 51°20.294 2°59.598 75.6 12.6 73 10.9
2007-12-18 08:55:34 51°20.299 2°59.624 75.6 12.7 72 10.8
2007-12-18 08:55:39 51°20.304 2°59.651 75.4 12.7 72 10.8
2007-12-18 08:55:44 51°20.31 2°59.677 74.9 12.6 71 10.9
2007-12-18 08:55:48 51°20.315 2°59.698 73.7 12.6 72 11
2007-12-18 08:55:54 51°20.322 2°59.73 73.4 12.6 69 10.9
2007-12-18 08:55:59 51°20.328 2°59.757 73.3 12.7 71 10.9
2007-12-18 08:56:04 51°20.334 2°59.783 73 12.6 69 10.9
2007-12-18 08:56:09 51°20.339 2°59.809 73.3 12.6 71 10.8
2007-12-18 08:56:14 51°20.346 2°59.835 73.2 12.6 69 11
2007-12-18 08:56:19 51°20.351 2°59.862 72.9 12.6 72 11
2007-12-18 08:56:24 51°20.357 2°59.888 73.4 12.7 70 11
2007-12-18 08:56:29 51°20.363 2°59.914 72.4 12.5 70 11
2007-12-18 08:56:34 51°20.369 2°59.941 73.4 12.6 72 11.1
2007-12-18 08:56:39 51°20.375 2°59.967 72.8 12.6 69 11.1
2007-12-18 08:56:44 51°20.38 2°59.993 72.7 12.5 72 11
2007-12-18 08:56:49 51°20.386 3°0.019 73.6 12.5 70 10.9
2007-12-18 08:56:54 51°20.392 3°0.046 73.6 12.6 72 11
2007-12-18 08:56:59 51°20.397 3°0.072 74 12.6 72 10.9
2007-12-18 08:57:04 51°20.403 3°0.099 74.9 12.5 73 10.9
2007-12-18 08:57:09 51°20.408 3°0.125 75.7 12.6 73 11
2007-12-18 08:57:14 51°20.412 3°0.152 75.7 12.6 72 11
2007-12-18 08:57:19 51°20.418 3°0.179 75.3 12.5 73 11.1
2007-12-18 08:57:24 51°20.423 3°0.205 75 12.6 73 11.1
2007-12-18 08:57:29 51°20.429 3°0.231 74.2 12.6 71 10.9
2007-12-18 08:57:34 51°20.434 3°0.258 73.9 12.5 71 11.1
2007-12-18 08:57:39 51°20.44 3°0.283 73.1 12.4 70 10.9
2007-12-18 08:57:44 51°20.446 3°0.309 73.3 12.6 70 11.1
2007-12-18 08:57:49 51°20.452 3°0.335 72.5 12.5 70 11.1
2007-12-18 08:57:54 51°20.458 3°0.362 72.7 12.5 71 11
2007-12-18 08:57:59 51°20.463 3°0.388 73.3 12.6 70 11.2
2007-12-18 08:58:04 51°20.469 3°0.414 72.5 12.5 71 11.1
2007-12-18 08:58:08 51°20.474 3°0.435 73.5 12.6 71 11.1
2007-12-18 08:58:14 51°20.481 3°0.466 73 12.5 70 11
2007-12-18 08:58:19 51°20.487 3°0.492 73.3 12.5 72 11
2007-12-18 08:58:24 51°20.493 3°0.519 73.9 12.6 71 11.1
2007-12-18 08:58:29 51°20.498 3°0.545 73.9 12.6 72 11
2007-12-18 08:58:34 51°20.503 3°0.572 74.9 12.6 72 11
2007-12-18 08:58:39 51°20.508 3°0.598 74.9 12.6 74 11
2007-12-18 08:58:44 51°20.513 3°0.625 75.6 12.6 73 10.9
2007-12-18 08:58:49 51°20.518 3°0.652 75.9 12.7 74 11
2007-12-18 08:58:54 51°20.523 3°0.678 75.8 12.6 73 10.9
2007-12-18 08:58:59 51°20.529 3°0.705 75.4 12.6 73 11